< Typhoon 200001 2000 Season Typhoon 200003 >
Typhoon 200002 (LONGWANG)
General InformationTrack Information on Google MapsDetailed Wind InformationList of All Images || Disaster Info.ResourceGoogle EarthGE AnimationAtom FeedGeoJSON
Detalied Best Track (Time Zone = UTC)
Year Month Day Hour Lat. Long. Pressure (hPa) Wind (kt) Class Image Chart
2000 5 17 06 16.1 118.8 1002 0 2 Image Chart
2000 5 17 12 16.0 119.6 1002 0 2 Image Chart
2000 5 17 18 15.9 120.0 1002 0 2 Image Chart
2000 5 18 00 16.2 121.1 1002 0 2 Image Chart
2000 5 18 06 18.0 122.5 1000 0 2 Image Chart
2000 5 18 12 19.2 123.6 1000 0 2 Image Chart
2000 5 18 18 20.4 124.1 1000 0 2 Image Chart
2000 5 19 00 21.1 125.5 998 35 3 Image Chart
2000 5 19 06 22.3 126.8 994 40 3 Image Chart
2000 5 19 12 23.3 128.6 994 40 3 Image Chart
2000 5 19 15 24.1 129.7 992 40 3 Image Chart
2000 5 19 18 24.7 130.8 990 45 3 Image Chart
2000 5 19 21 25.4 132.8 992 40 3 Image Chart
2000 5 20 00 26.4 135.0 994 40 3 Image Chart
2000 5 20 06 28.2 139.0 996 0 6 Image Chart
2000 5 20 12 30.3 142.0 1000 0 6 Image Chart
2000 5 20 18 31.3 144.8 1000 0 6 Image Chart
2000 5 21 00 33.5 146.8 1000 0 6 Image Chart
2000 5 21 06 34.7 149.8 1000 0 6 Image Chart
2000 5 21 12 35.8 153.6 1000 0 6 Image Chart
2000 5 21 18 37.1 156.2 1000 0 6 Image Chart
2000 5 22 00 38.8 160.3 1000 0 6 Image Chart
2000 5 22 06 39.8 163.4 996 0 6 Image Chart
2000 5 22 12 40.6 167.0 994 0 6 Image Chart
2000 5 22 18 41.0 170.6 992 0 6 Image Chart
2000 5 23 00 41.9 172.1 992 0 6 Image Chart
2000 5 23 06 42.1 174.1 992 0 6 Image Chart
2000 5 23 12 42.2 176.7 992 0 6 Image Chart
2000 5 23 18 42.3 178.4 990 0 6 Image Chart
2000 5 24 00 42.3 179.9 992 0 6 Image Chart
2000 5 24 06 43.0 182.5 992 0 6 Image Chart
Japan Meteorological Agency Best Track Data | Correction Date : 2001-12-21
< Typhoon 200001 2000 Season Typhoon 200003 >

Help